createdAt,value
2022-08-28T00:00:41.736Z,337.95
2022-08-28T00:03:09.511Z,268.38
2022-08-28T00:05:36.603Z,271.50
2022-08-28T00:08:03.907Z,180.48
2022-08-28T00:10:31.034Z,234.27
2022-08-28T00:12:59.370Z,169.63
2022-08-28T00:15:31.231Z,191.90
2022-08-28T00:17:59.378Z,179.75
2022-08-28T00:20:27.459Z,160.93
2022-08-28T00:22:55.607Z,117.93
2022-08-28T00:25:24.742Z,177.50
2022-08-28T00:27:53.101Z,171.70
2022-08-28T00:30:35.657Z,177.00
2022-08-28T00:33:25.156Z,135.75
2022-08-28T00:35:52.571Z,155.77
2022-08-28T00:38:21.099Z,182.00
2022-08-28T00:40:51.509Z,184.23
2022-08-28T00:43:25.788Z,203.02
2022-08-28T00:45:53.344Z,159.68
2022-08-28T00:48:20.128Z,135.70
2022-08-28T00:51:05.229Z,143.55
2022-08-28T00:53:33.211Z,160.70
2022-08-28T00:56:04.107Z,117.40
2022-08-28T00:58:37.684Z,156.73
2022-08-28T01:01:04.561Z,169.20
2022-08-28T01:03:31.587Z,116.50
2022-08-28T01:05:58.651Z,158.23
2022-08-28T01:08:25.515Z,114.22
2022-08-28T01:11:00.011Z,75.78
2022-08-28T01:13:27.925Z,138.18
2022-08-28T01:15:55.836Z,160.60
2022-08-28T01:18:23.219Z,135.90
2022-08-28T01:21:20.438Z,109.15
2022-08-28T01:24:11.753Z,154.30
2022-08-28T01:26:38.565Z,124.65
2022-08-28T01:29:07.212Z,117.88
2022-08-28T01:31:34.619Z,116.32
2022-08-28T01:34:01.738Z,107.07
2022-08-28T01:36:30.417Z,99.88
2022-08-28T01:39:08.282Z,159.45
2022-08-28T01:41:39.037Z,122.53
2022-08-28T01:44:06.201Z,115.13
2022-08-28T01:46:33.140Z,223.30
2022-08-28T01:49:00.429Z,226.07
2022-08-28T01:51:27.625Z,163.43
2022-08-28T01:53:54.453Z,165.73
2022-08-28T01:56:21.571Z,275.17
2022-08-28T01:58:48.416Z,310.95
2022-08-28T02:01:20.564Z,479.02
2022-08-28T02:03:48.783Z,360.42
2022-08-28T02:06:17.793Z,336.20
2022-08-28T02:08:46.680Z,309.65
2022-08-28T02:11:13.610Z,370.30
2022-08-28T02:13:40.823Z,279.90
2022-08-28T02:16:09.660Z,149.23
2022-08-28T02:18:37.925Z,189.40
2022-08-28T02:21:05.796Z,192.70
2022-08-28T02:23:32.671Z,185.98
2022-08-28T02:25:59.793Z,239.68
2022-08-28T02:28:26.629Z,160.15
2022-08-28T02:30:53.423Z,202.85
2022-08-28T02:33:20.330Z,381.10
2022-08-28T02:35:47.170Z,231.07
2022-08-28T02:38:14.163Z,390.15
2022-08-28T02:40:41.405Z,471.67
2022-08-28T02:43:08.416Z,297.25
2022-08-28T02:45:35.588Z,252.25
2022-08-28T02:48:02.819Z,141.75
2022-08-28T02:50:31.080Z,209.80
2022-08-28T02:52:58.345Z,148.65
2022-08-28T02:55:26.051Z,491.45
2022-08-28T02:57:54.622Z,304.92
2022-08-28T03:00:24.888Z,228.93
2022-08-28T03:02:52.674Z,104.80
2022-08-28T03:05:22.945Z,139.35
2022-08-28T03:07:53.253Z,223.60
2022-08-28T03:10:21.662Z,152.30
2022-08-28T03:12:48.500Z,148.75
2022-08-28T03:15:15.315Z,239.45
2022-08-28T03:17:42.135Z,302.83
2022-08-28T03:20:10.705Z,207.52
2022-08-28T03:22:55.876Z,164.32
2022-08-28T03:25:23.230Z,97.50
2022-08-28T03:27:50.559Z,80.20
2022-08-28T03:30:17.713Z,67.57
2022-08-28T03:32:44.920Z,325.33
2022-08-28T03:35:12.058Z,286.35
2022-08-28T03:37:39.243Z,184.23
2022-08-28T03:40:07.813Z,134.32
2022-08-28T03:42:35.139Z,88.82
2022-08-28T03:45:02.172Z,64.35
2022-08-28T03:47:29.658Z,71.63
2022-08-28T03:49:58.122Z,56.75
2022-08-28T03:52:25.187Z,69.47
2022-08-28T03:54:52.746Z,121.75
2022-08-28T03:57:21.989Z,113.43
2022-08-28T03:59:50.472Z,87.05
2022-08-28T04:02:19.344Z,60.30
2022-08-28T04:04:47.645Z,137.00
2022-08-28T04:07:15.100Z,118.47
2022-08-28T04:09:41.867Z,124.18
2022-08-28T04:12:09.572Z,146.23
2022-08-28T04:14:36.829Z,131.35
2022-08-28T04:17:04.498Z,180.23
2022-08-28T04:19:31.475Z,172.85
2022-08-28T04:21:58.245Z,137.80
2022-08-28T04:24:25.081Z,204.48
2022-08-28T04:26:51.849Z,217.82
2022-08-28T04:29:18.624Z,228.93
2022-08-28T04:31:45.519Z,253.70
2022-08-28T04:34:12.371Z,286.10
2022-08-28T04:36:39.280Z,246.15
2022-08-28T04:39:08.665Z,296.38
2022-08-28T04:41:37.540Z,421.30
2022-08-28T04:44:06.164Z,643.03
2022-08-28T04:46:33.301Z,854.63
2022-08-28T04:49:00.671Z,547.50
2022-08-28T04:51:28.657Z,385.33
2022-08-28T04:53:55.798Z,428.10
2022-08-28T04:56:22.735Z,641.97
2022-08-28T04:58:49.671Z,638.15
2022-08-28T05:01:24.403Z,819.15
2022-08-28T05:03:55.671Z,368.65
2022-08-28T05:06:24.749Z,310.92
2022-08-28T05:08:51.539Z,579.80
2022-08-28T05:11:32.722Z,405.17
2022-08-28T05:14:06.721Z,929.63
2022-08-28T05:16:40.185Z,655.80
2022-08-28T05:19:07.039Z,892.33
2022-08-28T05:21:33.817Z,790.13
2022-08-28T05:24:00.667Z,934.78
2022-08-28T05:26:29.947Z,845.40
2022-08-28T05:28:58.120Z,747.20
2022-08-28T05:31:26.428Z,365.00
2022-08-28T05:33:53.942Z,800.72
2022-08-28T05:36:22.986Z,539.85
2022-08-28T05:38:56.497Z,597.33
2022-08-28T05:41:25.994Z,468.23
2022-08-28T05:43:54.017Z,369.98
2022-08-28T05:46:23.157Z,238.43
2022-08-28T05:48:50.084Z,244.57
2022-08-28T05:51:22.369Z,166.82
2022-08-28T05:53:50.382Z,140.63
2022-08-28T05:56:21.260Z,218.00
2022-08-28T05:58:48.180Z,291.23
2022-08-28T06:01:28.216Z,400.92
2022-08-28T06:04:08.554Z,390.50
2022-08-28T06:06:38.300Z,271.65
2022-08-28T06:09:12.334Z,431.35
2022-08-28T06:11:44.587Z,264.52
2022-08-28T06:14:13.650Z,506.50
2022-08-28T06:16:45.537Z,557.50
2022-08-28T06:19:13.349Z,581.92
2022-08-28T06:21:41.525Z,331.38
2022-08-28T06:24:10.032Z,152.30
2022-08-28T06:26:37.483Z,135.10
2022-08-28T06:29:07.838Z,104.70
2022-08-28T06:31:34.925Z,100.43
2022-08-28T06:34:02.051Z,87.75
2022-08-28T06:36:31.498Z,104.65
2022-08-28T06:38:59.992Z,159.15
2022-08-28T06:41:27.755Z,153.15
2022-08-28T06:43:55.204Z,216.45
2022-08-28T06:46:22.551Z,216.95
2022-08-28T06:48:49.339Z,208.85
2022-08-28T06:51:16.743Z,610.63
2022-08-28T06:53:44.703Z,340.98
2022-08-28T06:56:25.504Z,361.80
2022-08-28T06:58:55.159Z,337.98
2022-08-28T07:01:31.301Z,338.70
2022-08-28T07:04:01.629Z,238.80
2022-08-28T07:06:32.314Z,232.25
2022-08-28T07:08:59.104Z,247.07
2022-08-28T07:11:29.161Z,627.88
2022-08-28T07:13:57.311Z,363.52
2022-08-28T07:16:32.070Z,387.17
2022-08-28T07:18:59.562Z,245.70
2022-08-28T07:21:27.010Z,310.48
2022-08-28T07:23:55.207Z,318.20
2022-08-28T07:26:23.731Z,298.25
2022-08-28T07:28:59.511Z,323.13
2022-08-28T07:31:43.988Z,585.25
2022-08-28T07:34:11.650Z,467.75
2022-08-28T07:36:39.207Z,491.48
2022-08-28T07:39:06.943Z,383.20
2022-08-28T07:41:39.171Z,724.25
2022-08-28T07:44:25.491Z,821.07
2022-08-28T07:47:01.148Z,564.15
2022-08-28T07:49:27.948Z,278.80
2022-08-28T07:51:54.826Z,305.60
2022-08-28T07:54:23.337Z,315.70
2022-08-28T07:56:50.939Z,298.52
2022-08-28T07:59:19.245Z,286.50
2022-08-28T08:01:48.298Z,312.42
2022-08-28T08:04:17.515Z,140.90
2022-08-28T08:06:44.968Z,386.10
2022-08-28T08:09:16.439Z,185.95
2022-08-28T08:11:44.070Z,419.75
2022-08-28T08:14:11.893Z,485.75
2022-08-28T08:16:42.318Z,420.20
2022-08-28T08:19:10.500Z,523.45
2022-08-28T08:21:38.103Z,368.33
2022-08-28T08:24:05.197Z,798.10
2022-08-28T08:26:33.056Z,862.08
2022-08-28T08:29:00.218Z,894.05
2022-08-28T08:31:29.651Z,779.42
2022-08-28T08:34:01.392Z,973.15
2022-08-28T08:36:29.323Z,813.95
2022-08-28T08:38:59.569Z,855.05
2022-08-28T08:41:34.868Z,709.83
2022-08-28T08:44:04.712Z,548.88
2022-08-28T08:46:53.940Z,381.35
2022-08-28T08:49:29.550Z,455.10
2022-08-28T08:52:11.440Z,325.95
2022-08-28T08:54:59.487Z,346.35
2022-08-28T08:57:27.403Z,457.42
2022-08-28T08:59:54.431Z,272.75
2022-08-28T09:02:31.357Z,367.23
2022-08-28T09:05:10.499Z,409.38
2022-08-28T09:08:02.676Z,267.00
2022-08-28T09:10:39.585Z,358.77
2022-08-28T09:13:26.405Z,834.22
2022-08-28T09:15:53.339Z,425.50
2022-08-28T09:18:33.038Z,272.00
2022-08-28T09:21:00.249Z,185.90
2022-08-28T09:23:30.105Z,258.63
2022-08-28T09:25:57.155Z,227.50
2022-08-28T09:28:38.060Z,215.13
2022-08-28T09:31:13.368Z,181.40
2022-08-28T09:33:44.828Z,144.82
2022-08-28T09:36:29.567Z,190.40
2022-08-28T09:39:08.654Z,457.38
2022-08-28T09:42:04.879Z,831.70
2022-08-28T09:44:32.172Z,861.60
2022-08-28T09:46:59.380Z,869.45
2022-08-28T09:49:30.622Z,863.15
2022-08-28T09:51:59.633Z,863.97
2022-08-28T09:54:40.709Z,556.50
2022-08-28T09:57:08.034Z,536.60
2022-08-28T09:59:34.831Z,455.42
2022-08-28T10:02:22.381Z,604.25
2022-08-28T10:05:10.651Z,337.42
2022-08-28T10:07:51.938Z,336.42
2022-08-28T10:10:40.295Z,412.13
2022-08-28T10:13:14.704Z,494.05
2022-08-28T10:15:49.831Z,646.53
2022-08-28T10:18:48.069Z,672.75
2022-08-28T10:21:23.740Z,580.67
2022-08-28T10:24:26.064Z,310.38
2022-08-28T10:27:32.850Z,164.95
2022-08-28T10:30:12.544Z,267.30
2022-08-28T10:32:48.645Z,309.42
2022-08-28T10:35:21.367Z,202.50
2022-08-28T10:37:54.264Z,153.65
2022-08-28T10:40:36.084Z,262.23
2022-08-28T10:43:11.820Z,228.93
2022-08-28T10:45:39.653Z,205.93
2022-08-28T10:48:27.522Z,198.68
2022-08-28T10:51:02.849Z,237.00
2022-08-28T10:53:38.801Z,186.60
2022-08-28T10:56:15.938Z,259.88
2022-08-28T10:58:43.153Z,272.40
2022-08-28T11:01:19.448Z,313.73
2022-08-28T11:03:49.745Z,192.02
2022-08-28T11:06:28.581Z,117.15
2022-08-28T11:08:58.651Z,109.25
2022-08-28T11:12:01.996Z,123.32
2022-08-28T11:14:47.586Z,608.72
2022-08-28T11:17:27.824Z,413.48
2022-08-28T11:20:24.910Z,424.90
2022-08-28T11:22:53.639Z,275.52
2022-08-28T11:25:32.734Z,327.90
2022-08-28T11:28:22.285Z,409.52
2022-08-28T11:31:10.229Z,451.05
2022-08-28T11:33:48.678Z,319.38
2022-08-28T11:36:19.062Z,316.73
2022-08-28T11:38:46.296Z,331.58
2022-08-28T11:41:32.740Z,276.83
2022-08-28T11:44:28.372Z,198.82
2022-08-28T11:47:15.641Z,195.95
2022-08-28T11:49:44.760Z,285.77
2022-08-28T11:52:23.461Z,266.98
2022-08-28T11:55:08.415Z,274.55
2022-08-28T11:57:50.249Z,201.80
2022-08-28T12:00:38.344Z,262.05
2022-08-28T12:03:23.893Z,192.98
2022-08-28T12:05:54.531Z,255.73
2022-08-28T12:08:44.219Z,221.02
2022-08-28T12:11:31.885Z,166.88
2022-08-28T12:13:59.069Z,167.27
2022-08-28T12:16:26.592Z,235.43
2022-08-28T12:18:53.414Z,136.80
2022-08-28T12:21:25.842Z,160.23
2022-08-28T12:23:59.221Z,162.40
2022-08-28T12:26:39.736Z,125.45
2022-08-28T12:29:16.971Z,247.18
2022-08-28T12:32:14.442Z,202.95
2022-08-28T12:34:50.758Z,191.85
2022-08-28T12:37:51.053Z,172.75
2022-08-28T12:40:22.800Z,182.38
2022-08-28T12:43:09.409Z,245.02
2022-08-28T12:46:02.491Z,186.77
2022-08-28T12:48:51.428Z,236.00
2022-08-28T12:51:33.590Z,294.80
2022-08-28T12:54:03.755Z,216.43
2022-08-28T12:56:34.133Z,259.55
2022-08-28T12:59:32.556Z,202.38
2022-08-28T13:02:09.309Z,269.17
2022-08-28T13:04:45.653Z,243.43
2022-08-28T13:07:16.709Z,339.17
2022-08-28T13:09:51.411Z,268.85
2022-08-28T13:12:56.063Z,288.27
2022-08-28T13:16:04.903Z,492.30
2022-08-28T13:18:45.286Z,188.13
2022-08-28T13:21:17.740Z,118.60
2022-08-28T13:24:23.666Z,564.30
2022-08-28T13:27:02.428Z,789.78
2022-08-28T13:29:29.665Z,550.45
2022-08-28T13:31:59.390Z,11.93
2022-08-28T13:34:29.165Z,8.95
2022-08-28T13:36:59.895Z,12.70
2022-08-28T13:39:30.394Z,24.88
2022-08-28T13:42:01.715Z,80.22
2022-08-28T13:44:48.810Z,168.93
2022-08-28T13:47:16.770Z,442.67
2022-08-28T13:49:43.610Z,802.80
2022-08-28T13:52:11.310Z,1083.03
2022-08-28T13:54:39.182Z,1098.70
2022-08-28T13:57:10.578Z,1101.90
2022-08-28T13:59:37.459Z,1003.72
2022-08-28T14:02:26.737Z,1104.45
2022-08-28T14:04:53.768Z,1090.68
2022-08-28T14:07:20.653Z,1099.55
2022-08-28T14:09:47.620Z,980.78
2022-08-28T14:12:15.320Z,980.08
2022-08-28T14:14:43.110Z,1083.13
2022-08-28T14:17:10.387Z,1093.75
2022-08-28T14:19:37.491Z,978.35
2022-08-28T14:22:04.981Z,1094.82
2022-08-28T14:24:32.608Z,961.55
2022-08-28T14:26:59.704Z,1102.25
2022-08-28T14:29:26.565Z,1091.65
2022-08-28T14:31:53.504Z,965.38
2022-08-28T14:34:22.591Z,1093.32
2022-08-28T14:36:50.998Z,980.13
2022-08-28T14:39:18.211Z,1087.85
2022-08-28T14:41:46.946Z,969.45
2022-08-28T14:44:13.977Z,956.13
2022-08-28T14:46:44.297Z,968.45
2022-08-28T14:49:13.485Z,1064.50
2022-08-28T14:51:42.307Z,1045.85
2022-08-28T14:54:11.112Z,1067.40
2022-08-28T14:56:38.121Z,1063.75
2022-08-28T14:59:06.853Z,1057.40
2022-08-28T15:01:40.375Z,1038.53
2022-08-28T15:04:11.647Z,1038.43
2022-08-28T15:06:39.085Z,951.25
2022-08-28T15:09:05.929Z,927.75
2022-08-28T15:11:32.855Z,942.15
2022-08-28T15:13:59.618Z,916.30
2022-08-28T15:16:30.676Z,1042.88
2022-08-28T15:18:59.199Z,932.37
2022-08-28T15:21:38.616Z,928.15
2022-08-28T15:24:07.188Z,1022.60
2022-08-28T15:26:34.350Z,943.17
2022-08-28T15:29:04.064Z,1022.47
2022-08-28T15:31:33.285Z,888.90
2022-08-28T15:34:13.276Z,1015.88
2022-08-28T15:36:42.089Z,917.25
2022-08-28T15:39:27.764Z,921.92
2022-08-28T15:41:54.928Z,1025.15
2022-08-28T15:44:21.886Z,909.25
2022-08-28T15:46:55.891Z,1066.43
2022-08-28T15:49:24.179Z,1016.95
2022-08-28T15:51:51.702Z,1011.10
2022-08-28T15:54:19.940Z,1038.97
2022-08-28T15:56:46.770Z,934.33
2022-08-28T15:59:17.730Z,1005.97
2022-08-28T16:01:44.958Z,1034.22
2022-08-28T16:04:13.654Z,1009.08
2022-08-28T16:06:41.827Z,1018.90
2022-08-28T16:09:09.576Z,963.75
2022-08-28T16:11:37.243Z,841.75
2022-08-28T16:14:06.048Z,887.20
2022-08-28T16:16:33.689Z,1047.20
2022-08-28T16:19:00.636Z,1067.32
2022-08-28T16:21:28.228Z,943.05
2022-08-28T16:23:55.184Z,1036.75
2022-08-28T16:26:22.468Z,1028.03
2022-08-28T16:28:49.606Z,916.88
2022-08-28T16:31:19.892Z,1024.78
2022-08-28T16:33:48.843Z,1017.58
2022-08-28T16:36:18.595Z,1030.35
2022-08-28T16:38:47.943Z,939.22
2022-08-28T16:41:18.798Z,924.88
2022-08-28T16:43:46.434Z,906.72
2022-08-28T16:46:19.402Z,918.00
2022-08-28T16:48:46.908Z,1027.47
2022-08-28T16:51:15.628Z,900.30
2022-08-28T16:53:42.831Z,1005.53
2022-08-28T16:56:15.936Z,915.95
2022-08-28T16:58:43.895Z,894.85
2022-08-28T17:01:12.210Z,909.08
2022-08-28T17:03:40.252Z,1042.30
2022-08-28T17:06:23.654Z,1040.90
2022-08-28T17:08:56.429Z,977.53
2022-08-28T17:11:24.736Z,1021.95
2022-08-28T17:13:51.942Z,1032.18
2022-08-28T17:16:19.717Z,913.90
2022-08-28T17:18:48.383Z,943.05
2022-08-28T17:21:39.285Z,1035.95
2022-08-28T17:24:06.860Z,1057.22
2022-08-28T17:26:33.991Z,1034.22
2022-08-28T17:29:00.767Z,1037.47
2022-08-28T17:31:27.823Z,1053.88
2022-08-28T17:33:54.744Z,1042.07
2022-08-28T17:36:33.716Z,940.85
2022-08-28T17:39:06.802Z,929.72
2022-08-28T17:41:34.041Z,1046.47
2022-08-28T17:44:02.001Z,1055.63
2022-08-28T17:46:30.941Z,1037.30
2022-08-28T17:49:01.682Z,1023.00
2022-08-28T17:51:42.841Z,934.00
2022-08-28T17:54:16.733Z,1036.63
2022-08-28T17:56:44.018Z,1031.47
2022-08-28T17:59:12.259Z,933.10
2022-08-28T18:01:39.988Z,1028.18
2022-08-28T18:04:06.877Z,1033.97
2022-08-28T18:06:33.767Z,1042.63
2022-08-28T18:09:00.643Z,1043.35
2022-08-28T18:11:28.533Z,922.40
2022-08-28T18:13:55.456Z,921.65
2022-08-28T18:16:23.859Z,927.92
2022-08-28T18:18:53.951Z,1023.03
2022-08-28T18:21:21.465Z,919.20
2022-08-28T18:23:48.245Z,917.80
2022-08-28T18:26:17.515Z,1014.65
2022-08-28T18:28:44.339Z,1031.45
2022-08-28T18:31:11.253Z,1029.95
2022-08-28T18:33:38.385Z,914.72
2022-08-28T18:36:10.527Z,934.38
2022-08-28T18:38:37.444Z,920.75
2022-08-28T18:41:05.771Z,1030.43
2022-08-28T18:43:32.899Z,999.08
2022-08-28T18:46:01.576Z,1003.63
2022-08-28T18:48:29.237Z,1004.85
2022-08-28T18:50:56.021Z,1004.33
2022-08-28T18:53:23.886Z,909.53
2022-08-28T18:55:52.810Z,917.40
2022-08-28T18:58:22.036Z,1018.70
2022-08-28T19:00:49.468Z,1024.30
2022-08-28T19:03:16.276Z,1045.05
2022-08-28T19:05:43.100Z,1050.28
2022-08-28T19:08:10.001Z,896.72
2022-08-28T19:10:38.224Z,912.70
2022-08-28T19:13:06.721Z,909.03
2022-08-28T19:15:35.678Z,917.05
2022-08-28T19:18:03.297Z,1030.90
2022-08-28T19:20:31.207Z,924.83
2022-08-28T19:22:58.433Z,1039.78
2022-08-28T19:25:29.103Z,1026.05
2022-08-28T19:28:01.578Z,1012.08
2022-08-28T19:30:32.980Z,913.50
2022-08-28T19:33:01.048Z,929.40
2022-08-28T19:35:28.416Z,1039.75
2022-08-28T19:37:55.698Z,1039.63
2022-08-28T19:40:23.206Z,946.45
2022-08-28T19:42:50.374Z,927.15
2022-08-28T19:45:17.928Z,1043.13
2022-08-28T19:47:44.942Z,934.38
2022-08-28T19:50:13.947Z,1044.78
2022-08-28T19:52:41.599Z,934.20
2022-08-28T19:55:08.700Z,923.28
2022-08-28T19:57:35.704Z,1015.45
2022-08-28T20:00:04.445Z,1030.85
2022-08-28T20:02:31.694Z,924.70
2022-08-28T20:04:59.469Z,1039.90
2022-08-28T20:07:26.309Z,1043.35
2022-08-28T20:09:53.139Z,1028.13
2022-08-28T20:12:20.168Z,1019.80
2022-08-28T20:14:47.371Z,1023.85
2022-08-28T20:17:14.198Z,1015.30
2022-08-28T20:19:41.388Z,1021.08
2022-08-28T20:22:08.487Z,1011.08
2022-08-28T20:24:35.312Z,1008.35
2022-08-28T20:27:02.499Z,1011.53
2022-08-28T20:29:29.396Z,901.88
2022-08-28T20:31:56.198Z,923.25
2022-08-28T20:34:23.493Z,912.70
2022-08-28T20:36:50.904Z,910.70
2022-08-28T20:39:18.516Z,914.50
2022-08-28T20:41:46.134Z,1007.38
2022-08-28T20:44:16.180Z,901.17
2022-08-28T20:46:43.841Z,901.97
2022-08-28T20:49:16.347Z,900.58
2022-08-28T20:51:54.420Z,905.17
2022-08-28T20:54:32.395Z,1005.50
2022-08-28T20:57:02.468Z,905.65
2022-08-28T20:59:39.205Z,912.30
2022-08-28T21:02:13.137Z,907.45
2022-08-28T21:04:41.810Z,907.63
2022-08-28T21:07:09.439Z,906.67
2022-08-28T21:10:04.607Z,915.80
2022-08-28T21:12:24.717Z,1011.75
2022-08-28T21:14:52.936Z,1008.05
2022-08-28T21:17:29.949Z,925.20
2022-08-28T21:20:00.278Z,1014.08
2022-08-28T21:22:28.960Z,1020.85
2022-08-28T21:24:55.851Z,916.88
2022-08-28T21:27:22.703Z,908.05
2022-08-28T21:29:49.472Z,909.17
2022-08-28T21:32:17.059Z,917.45
2022-08-28T21:34:43.848Z,908.70
2022-08-28T21:37:10.810Z,917.22
2022-08-28T21:39:37.626Z,1019.22
2022-08-28T21:42:04.512Z,915.00
2022-08-28T21:44:31.371Z,924.60
2022-08-28T21:46:59.190Z,1027.50
2022-08-28T21:49:26.059Z,909.88
2022-08-28T21:51:53.051Z,1021.65
2022-08-28T21:54:19.932Z,908.55
2022-08-28T21:56:46.752Z,914.67
2022-08-28T21:59:17.401Z,1010.40
2022-08-28T22:01:44.346Z,1020.03
2022-08-28T22:04:11.673Z,1037.43
2022-08-28T22:06:39.965Z,1027.95
2022-08-28T22:09:08.695Z,1022.53
2022-08-28T22:11:35.849Z,905.13
2022-08-28T22:14:02.870Z,911.63
2022-08-28T22:16:29.757Z,1012.13
2022-08-28T22:18:56.697Z,996.80
2022-08-28T22:21:45.598Z,1010.70
2022-08-28T22:24:13.313Z,1018.33
2022-08-28T22:26:42.095Z,1020.85
2022-08-28T22:29:09.787Z,1009.25
2022-08-28T22:31:38.300Z,1014.35
2022-08-28T22:34:12.829Z,907.83
2022-08-28T22:36:39.905Z,913.88
2022-08-28T22:39:07.078Z,904.25
2022-08-28T22:41:34.006Z,908.63
2022-08-28T22:44:01.058Z,918.40
2022-08-28T22:46:28.240Z,1007.13
2022-08-28T22:48:55.140Z,903.95
2022-08-28T22:51:21.986Z,1007.35
2022-08-28T22:53:49.260Z,908.03
2022-08-28T22:56:17.516Z,906.67
2022-08-28T22:58:44.760Z,1017.97
2022-08-28T23:01:19.914Z,914.92
2022-08-28T23:03:46.848Z,1017.05
2022-08-28T23:06:13.975Z,1027.07
2022-08-28T23:08:41.022Z,1027.45
2022-08-28T23:11:08.558Z,905.30
2022-08-28T23:13:35.604Z,922.83
2022-08-28T23:16:03.526Z,1018.15
2022-08-28T23:18:38.166Z,900.72
2022-08-28T23:21:18.806Z,918.03
2022-08-28T23:23:46.298Z,918.15
2022-08-28T23:26:14.449Z,933.28
2022-08-28T23:28:42.140Z,916.85
2022-08-28T23:31:09.752Z,920.20
2022-08-28T23:33:36.611Z,1020.97
2022-08-28T23:36:04.035Z,891.83
2022-08-28T23:38:30.953Z,895.67
2022-08-28T23:40:58.011Z,1014.83
2022-08-28T23:43:24.877Z,1014.08
2022-08-28T23:45:52.112Z,896.72
2022-08-28T23:48:19.086Z,892.38
2022-08-28T23:50:45.916Z,1008.28
2022-08-28T23:53:12.893Z,903.05
2022-08-28T23:55:39.813Z,901.72
2022-08-28T23:58:06.665Z,902.03
